Camden, MI (49232)

6:07 AM EST on November 23, 2014 (GMT -0500)
KMIWALDR2 | Change Station
CLOSE
Current Station
Personal Weather Station
Location: Waldron, MI
Elevation: 900 ft
Nearby Weather Stations

Elev 900 ft 41.70 °N, 84.46 °W | Updated 15 seconds ago

Rain
Rain
43.5 °F
Feels Like 44 °F
N
1.0
Wind Variable Wind from South
Gusts 5.0 mph

Today
High -- | Low -- °F
--% Chance of Precip.
Yesterday
High -- | Low -- °F
Precip. -- in
7:37 AM 5:12 PM
New Moon, 1% visible
Pressure 29.91 in
Visibility 5.0 miles
Clouds Overcast 2100 ft
Windchill 44 °F
Dew Point 42 °F
Humidity 95%
Rainfall 0.04 in
Snow Depth Not available.
UV 0 out of 12
Pollen .10 out of 12
Air Quality Not available.
Flu Activity Not available.
METAR KJYM 231055Z AUTO 18006KT 5SM BR OVC021 07/07 A2991 RMK AO2 T00730073

More Conditions Fewer Conditions

Pressure 29.91 in
Visibility 5.0 miles
Clouds Overcast 2100 ft
Windchill 44 °F
Dew Point 42 °F
Humidity 95%
Rainfall 0.04 in
Snow Depth Not available.
UV 0 out of 12
Pollen .10 out of 12
Air Quality Not available.
Flu Activity Not available.
METAR KJYM 231055Z AUTO 18006KT 5SM BR OVC021 07/07 A2991 RMK AO2 T00730073

More Conditions Fewer Conditions

10-Day Weather Forecast

Almanac

Astronomy

Nov. 23, 2014 Rise Set
Actual Time
Civil Twilight
Nautical Twilight
Astronomical Twilight
Moon
Length of Visible Light
Length of Day
Tomorrow will be .
, % of the Moon is Illuminated

Today's Extremes

State Highs State Lows

Community

WunderPhotos

Upload Photos

1,773,033 photos uploaded!

WunderBlogs® & News

Nearby

Air Quality

  Air Quality AQ Index Pollutant
Not available.

Snow Depth

Station Depth Elevation

Earthquake Activity

City Distance Mag. Time & Date
Minimum magnitude displayed is 2.5.

Coastal Water Temperatures

Place Temperature

Nearby Weather Stations